sensor_id;sensor_type;location;lat;lon;timestamp;pressure;altitude;pressure_sealevel;temperature;humidity
76598;BME280;65486;53.144;18.134;2023-01-23T00:01:32;103052.27;;;-0.24;85.20
76598;BME280;65486;53.144;18.134;2023-01-23T00:04:03;103058.91;;;-0.23;85.51
76598;BME280;65486;53.144;18.134;2023-01-23T00:06:31;103055.83;;;-0.23;85.29
76598;BME280;65486;53.144;18.134;2023-01-23T00:08:58;103056.58;;;-0.23;85.43
76598;BME280;65486;53.144;18.134;2023-01-23T00:11:28;103056.04;;;-0.23;85.58
76598;BME280;65486;53.144;18.134;2023-01-23T00:14:00;103060.85;;;-0.22;85.62
76598;BME280;65486;53.144;18.134;2023-01-23T00:16:31;103062.44;;;-0.22;85.34
76598;BME280;65486;53.144;18.134;2023-01-23T00:18:59;103064.35;;;-0.21;85.28
76598;BME280;65486;53.144;18.134;2023-01-23T00:21:27;103060.75;;;-0.21;85.27
76598;BME280;65486;53.144;18.134;2023-01-23T00:23:58;103060.19;;;-0.21;85.45
76598;BME280;65486;53.144;18.134;2023-01-23T00:26:28;103061.66;;;-0.21;85.12
76598;BME280;65486;53.144;18.134;2023-01-23T00:28:55;103057.65;;;-0.23;85.28
76598;BME280;65486;53.144;18.134;2023-01-23T00:31:27;103057.02;;;-0.25;85.39
76598;BME280;65486;53.144;18.134;2023-01-23T00:33:59;103060.84;;;-0.25;85.43
76598;BME280;65486;53.144;18.134;2023-01-23T00:36:39;103058.21;;;-0.26;85.29
76598;BME280;65486;53.144;18.134;2023-01-23T00:39:12;103062.86;;;-0.26;85.31
76598;BME280;65486;53.144;18.134;2023-01-23T00:41:44;103066.20;;;-0.27;85.40
76598;BME280;65486;53.144;18.134;2023-01-23T00:44:13;103065.66;;;-0.27;85.74
76598;BME280;65486;53.144;18.134;2023-01-23T00:46:40;103064.11;;;-0.25;85.94
76598;BME280;65486;53.144;18.134;2023-01-23T00:49:07;103063.80;;;-0.26;86.01
76598;BME280;65486;53.144;18.134;2023-01-23T00:51:34;103065.26;;;-0.24;86.10
76598;BME280;65486;53.144;18.134;2023-01-23T00:54:02;103065.14;;;-0.22;85.98
76598;BME280;65486;53.144;18.134;2023-01-23T00:56:30;103066.45;;;-0.20;85.85
76598;BME280;65486;53.144;18.134;2023-01-23T00:58:57;103069.48;;;-0.19;85.70
76598;BME280;65486;53.144;18.134;2023-01-23T01:01:28;103070.45;;;-0.20;85.58
76598;BME280;65486;53.144;18.134;2023-01-23T01:03:57;103073.17;;;-0.20;85.72
76598;BME280;65486;53.144;18.134;2023-01-23T01:06:25;103076.04;;;-0.20;86.08
76598;BME280;65486;53.144;18.134;2023-01-23T01:08:52;103072.66;;;-0.21;85.89
76598;BME280;65486;53.144;18.134;2023-01-23T01:11:19;103077.29;;;-0.22;85.77
76598;BME280;65486;53.144;18.134;2023-01-23T01:13:48;103077.34;;;-0.23;85.87
76598;BME280;65486;53.144;18.134;2023-01-23T01:16:17;103078.53;;;-0.22;85.51
76598;BME280;65486;53.144;18.134;2023-01-23T01:18:45;103086.69;;;-0.20;85.66
76598;BME280;65486;53.144;18.134;2023-01-23T01:21:13;103087.95;;;-0.19;85.75
76598;BME280;65486;53.144;18.134;2023-01-23T01:23:42;103087.08;;;-0.20;85.83
76598;BME280;65486;53.144;18.134;2023-01-23T01:26:09;103085.91;;;-0.21;85.91
76598;BME280;65486;53.144;18.134;2023-01-23T01:28:37;103080.98;;;-0.23;86.01
76598;BME280;65486;53.144;18.134;2023-01-23T01:31:08;103085.61;;;-0.25;85.62
76598;BME280;65486;53.144;18.134;2023-01-23T01:33:39;103089.52;;;-0.27;85.95
76598;BME280;65486;53.144;18.134;2023-01-23T01:36:11;103087.35;;;-0.27;85.46
76598;BME280;65486;53.144;18.134;2023-01-23T01:38:38;103083.20;;;-0.27;85.48
76598;BME280;65486;53.144;18.134;2023-01-23T01:41:16;103091.38;;;-0.28;85.85
76598;BME280;65486;53.144;18.134;2023-01-23T01:43:45;103092.70;;;-0.26;85.77
76598;BME280;65486;53.144;18.134;2023-01-23T01:51:37;103094.94;;;-0.24;85.85
76598;BME280;65486;53.144;18.134;2023-01-23T01:54:13;103088.52;;;-0.25;86.07
76598;BME280;65486;53.144;18.134;2023-01-23T01:56:57;103091.80;;;-0.23;86.03
76598;BME280;65486;53.144;18.134;2023-01-23T01:59:28;103093.50;;;-0.21;85.77
76598;BME280;65486;53.144;18.134;2023-01-23T02:02:02;103095.97;;;-0.23;85.89
76598;BME280;65486;53.144;18.134;2023-01-23T02:04:33;103095.70;;;-0.25;85.82
76598;BME280;65486;53.144;18.134;2023-01-23T02:07:06;103100.75;;;-0.27;85.89
76598;BME280;65486;53.144;18.134;2023-01-23T02:09:35;103097.41;;;-0.29;85.77
76598;BME280;65486;53.144;18.134;2023-01-23T02:12:02;103097.05;;;-0.29;85.86
76598;BME280;65486;53.144;18.134;2023-01-23T02:14:30;103090.92;;;-0.29;85.52
76598;BME280;65486;53.144;18.134;2023-01-23T02:16:57;103090.13;;;-0.31;85.28
76598;BME280;65486;53.144;18.134;2023-01-23T02:23:00;103099.33;;;-0.39;85.19
76598;BME280;65486;53.144;18.134;2023-01-23T02:28:00;103111.80;;;-0.45;85.29
76598;BME280;65486;53.144;18.134;2023-01-23T02:30:34;103115.20;;;-0.45;85.23
76598;BME280;65486;53.144;18.134;2023-01-23T02:35:57;103117.23;;;-0.46;85.42
76598;BME280;65486;53.144;18.134;2023-01-23T02:38:30;103117.08;;;-0.43;85.25
76598;BME280;65486;53.144;18.134;2023-01-23T02:41:01;103114.61;;;-0.41;85.28
76598;BME280;65486;53.144;18.134;2023-01-23T02:43:33;103119.67;;;-0.38;85.86
76598;BME280;65486;53.144;18.134;2023-01-23T02:46:09;103119.45;;;-0.35;85.75
76598;BME280;65486;53.144;18.134;2023-01-23T02:48:37;103117.95;;;-0.34;85.41
76598;BME280;65486;53.144;18.134;2023-01-23T02:51:09;103119.80;;;-0.34;85.24
76598;BME280;65486;53.144;18.134;2023-01-23T02:53:39;103118.75;;;-0.35;85.42
76598;BME280;65486;53.144;18.134;2023-01-23T02:56:08;103120.16;;;-0.34;85.36
76598;BME280;65486;53.144;18.134;2023-01-23T02:58:35;103115.34;;;-0.35;85.56
76598;BME280;65486;53.144;18.134;2023-01-23T03:01:20;103118.77;;;-0.32;85.53
76598;BME280;65486;53.144;18.134;2023-01-23T03:03:48;103121.23;;;-0.31;85.42
76598;BME280;65486;53.144;18.134;2023-01-23T03:06:17;103122.85;;;-0.28;85.20
76598;BME280;65486;53.144;18.134;2023-01-23T03:08:46;103127.42;;;-0.26;85.31
76598;BME280;65486;53.144;18.134;2023-01-23T03:11:15;103125.79;;;-0.26;85.12
76598;BME280;65486;53.144;18.134;2023-01-23T03:13:44;103125.48;;;-0.27;85.14
76598;BME280;65486;53.144;18.134;2023-01-23T03:16:13;103128.70;;;-0.26;85.19
76598;BME280;65486;53.144;18.134;2023-01-23T03:18:40;103125.19;;;-0.25;85.24
76598;BME280;65486;53.144;18.134;2023-01-23T03:21:07;103120.24;;;-0.24;85.41
76598;BME280;65486;53.144;18.134;2023-01-23T03:23:39;103119.19;;;-0.25;85.55
76598;BME280;65486;53.144;18.134;2023-01-23T03:26:09;103119.67;;;-0.24;85.33
76598;BME280;65486;53.144;18.134;2023-01-23T03:28:39;103120.72;;;-0.23;85.53
76598;BME280;65486;53.144;18.134;2023-01-23T03:31:25;103120.08;;;-0.24;85.54
76598;BME280;65486;53.144;18.134;2023-01-23T03:33:52;103121.38;;;-0.25;85.30
76598;BME280;65486;53.144;18.134;2023-01-23T03:36:19;103121.13;;;-0.26;85.20
76598;BME280;65486;53.144;18.134;2023-01-23T03:38:46;103117.09;;;-0.26;85.30
76598;BME280;65486;53.144;18.134;2023-01-23T03:41:32;103113.55;;;-0.24;85.18
76598;BME280;65486;53.144;18.134;2023-01-23T03:44:02;103113.34;;;-0.21;85.25
76598;BME280;65486;53.144;18.134;2023-01-23T03:46:33;103113.28;;;-0.20;85.01
76598;BME280;65486;53.144;18.134;2023-01-23T03:49:02;103114.05;;;-0.21;85.37
76598;BME280;65486;53.144;18.134;2023-01-23T03:51:29;103113.29;;;-0.20;85.35
76598;BME280;65486;53.144;18.134;2023-01-23T03:53:56;103105.73;;;-0.17;85.39
76598;BME280;65486;53.144;18.134;2023-01-23T03:56:22;103110.98;;;-0.15;85.31
76598;BME280;65486;53.144;18.134;2023-01-23T03:58:50;103110.58;;;-0.15;85.31
76598;BME280;65486;53.144;18.134;2023-01-23T04:01:19;103118.02;;;-0.15;85.28
76598;BME280;65486;53.144;18.134;2023-01-23T04:03:46;103122.44;;;-0.16;85.24
76598;BME280;65486;53.144;18.134;2023-01-23T04:06:15;103127.20;;;-0.17;85.48
76598;BME280;65486;53.144;18.134;2023-01-23T04:08:45;103133.65;;;-0.19;85.43
76598;BME280;65486;53.144;18.134;2023-01-23T04:11:13;103125.04;;;-0.26;85.50
76598;BME280;65486;53.144;18.134;2023-01-23T04:13:40;103143.06;;;-0.19;85.28
76598;BME280;65486;53.144;18.134;2023-01-23T04:16:08;103141.69;;;-0.17;85.39
76598;BME280;65486;53.144;18.134;2023-01-23T04:18:38;103146.02;;;-0.14;85.22
76598;BME280;65486;53.144;18.134;2023-01-23T04:21:06;103148.90;;;-0.14;85.20
76598;BME280;65486;53.144;18.134;2023-01-23T04:23:33;103151.60;;;-0.14;85.16
76598;BME280;65486;53.144;18.134;2023-01-23T04:26:01;103154.05;;;-0.16;85.30
76598;BME280;65486;53.144;18.134;2023-01-23T04:28:28;103154.09;;;-0.16;85.05
76598;BME280;65486;53.144;18.134;2023-01-23T04:30:55;103153.83;;;-0.15;85.24
76598;BME280;65486;53.144;18.134;2023-01-23T04:33:27;103160.06;;;-0.14;85.38
76598;BME280;65486;53.144;18.134;2023-01-23T04:35:57;103160.63;;;-0.14;85.37
76598;BME280;65486;53.144;18.134;2023-01-23T04:38:26;103164.96;;;-0.14;85.41
76598;BME280;65486;53.144;18.134;2023-01-23T04:40:54;103172.40;;;-0.14;85.36
76598;BME280;65486;53.144;18.134;2023-01-23T04:43:21;103175.52;;;-0.15;85.44
76598;BME280;65486;53.144;18.134;2023-01-23T04:45:52;103180.45;;;-0.16;85.16
76598;BME280;65486;53.144;18.134;2023-01-23T04:48:34;103188.14;;;-0.17;85.40
76598;BME280;65486;53.144;18.134;2023-01-23T04:51:01;103183.45;;;-0.17;85.32
76598;BME280;65486;53.144;18.134;2023-01-23T04:53:29;103174.23;;;-0.17;85.22
76598;BME280;65486;53.144;18.134;2023-01-23T04:55:59;103177.09;;;-0.17;85.32
76598;BME280;65486;53.144;18.134;2023-01-23T04:58:26;103177.14;;;-0.18;85.25
76598;BME280;65486;53.144;18.134;2023-01-23T05:01:04;103182.09;;;-0.19;85.07
76598;BME280;65486;53.144;18.134;2023-01-23T05:03:33;103184.92;;;-0.21;85.10
76598;BME280;65486;53.144;18.134;2023-01-23T05:06:03;103183.41;;;-0.23;84.97
76598;BME280;65486;53.144;18.134;2023-01-23T05:08:30;103185.60;;;-0.26;85.21
76598;BME280;65486;53.144;18.134;2023-01-23T05:11:17;103189.89;;;-0.28;85.13
76598;BME280;65486;53.144;18.134;2023-01-23T05:13:44;103201.90;;;-0.29;85.24
76598;BME280;65486;53.144;18.134;2023-01-23T05:16:15;103201.30;;;-0.31;85.18
76598;BME280;65486;53.144;18.134;2023-01-23T05:19:12;103207.61;;;-0.31;85.22
76598;BME280;65486;53.144;18.134;2023-01-23T05:21:41;103213.36;;;-0.30;84.97
76598;BME280;65486;53.144;18.134;2023-01-23T05:24:19;103212.36;;;-0.29;84.96
76598;BME280;65486;53.144;18.134;2023-01-23T05:26:53;103207.73;;;-0.30;85.17
76598;BME280;65486;53.144;18.134;2023-01-23T05:29:24;103202.92;;;-0.31;85.08
76598;BME280;65486;53.144;18.134;2023-01-23T05:32:09;103211.96;;;-0.34;85.20
76598;BME280;65486;53.144;18.134;2023-01-23T05:34:38;103219.11;;;-0.36;85.06
76598;BME280;65486;53.144;18.134;2023-01-23T05:37:22;103220.67;;;-0.35;85.27
76598;BME280;65486;53.144;18.134;2023-01-23T05:40:00;103219.54;;;-0.34;84.94
76598;BME280;65486;53.144;18.134;2023-01-23T05:42:44;103220.59;;;-0.33;85.27
76598;BME280;65486;53.144;18.134;2023-01-23T05:45:41;103219.32;;;-0.33;85.12
76598;BME280;65486;53.144;18.134;2023-01-23T05:48:14;103223.19;;;-0.35;85.43
76598;BME280;65486;53.144;18.134;2023-01-23T05:50:41;103229.13;;;-0.34;85.04
76598;BME280;65486;53.144;18.134;2023-01-23T05:53:08;103235.63;;;-0.34;85.15
76598;BME280;65486;53.144;18.134;2023-01-23T05:55:39;103246.42;;;-0.33;85.10
76598;BME280;65486;53.144;18.134;2023-01-23T05:58:07;103245.84;;;-0.32;85.34
76598;BME280;65486;53.144;18.134;2023-01-23T06:00:54;103248.10;;;-0.31;85.25
76598;BME280;65486;53.144;18.134;2023-01-23T06:03:59;103247.42;;;-0.32;85.40
76598;BME280;65486;53.144;18.134;2023-01-23T06:06:35;103247.23;;;-0.29;85.41
76598;BME280;65486;53.144;18.134;2023-01-23T06:09:02;103252.06;;;-0.28;85.24
76598;BME280;65486;53.144;18.134;2023-01-23T06:11:31;103256.93;;;-0.27;85.27
76598;BME280;65486;53.144;18.134;2023-01-23T06:13:58;103258.27;;;-0.26;85.28
76598;BME280;65486;53.144;18.134;2023-01-23T06:16:25;103254.59;;;-0.25;85.17
76598;BME280;65486;53.144;18.134;2023-01-23T06:18:52;103251.00;;;-0.25;85.30
76598;BME280;65486;53.144;18.134;2023-01-23T06:21:19;103256.27;;;-0.23;85.13
76598;BME280;65486;53.144;18.134;2023-01-23T06:23:47;103249.91;;;-0.28;84.88
76598;BME280;65486;53.144;18.134;2023-01-23T06:26:15;103265.37;;;-0.21;85.14
76598;BME280;65486;53.144;18.134;2023-01-23T06:28:43;103264.41;;;-0.23;85.16
76598;BME280;65486;53.144;18.134;2023-01-23T06:31:11;103251.05;;;-0.26;85.11
76598;BME280;65486;53.144;18.134;2023-01-23T06:33:53;103268.02;;;-0.23;85.10
76598;BME280;65486;53.144;18.134;2023-01-23T06:36:23;103275.03;;;-0.25;85.27
76598;BME280;65486;53.144;18.134;2023-01-23T06:38:51;103279.30;;;-0.27;85.37
76598;BME280;65486;53.144;18.134;2023-01-23T06:41:24;103277.14;;;-0.27;85.45
76598;BME280;65486;53.144;18.134;2023-01-23T06:43:53;103281.39;;;-0.26;85.29
76598;BME280;65486;53.144;18.134;2023-01-23T06:46:23;103278.71;;;-0.23;85.44
76598;BME280;65486;53.144;18.134;2023-01-23T06:48:52;103282.59;;;-0.21;85.21
76598;BME280;65486;53.144;18.134;2023-01-23T06:51:24;103281.36;;;-0.22;85.22
76598;BME280;65486;53.144;18.134;2023-01-23T06:53:52;103283.98;;;-0.21;85.22
76598;BME280;65486;53.144;18.134;2023-01-23T06:56:25;103285.48;;;-0.21;85.16
76598;BME280;65486;53.144;18.134;2023-01-23T06:58:53;103287.42;;;-0.21;85.21
76598;BME280;65486;53.144;18.134;2023-01-23T07:01:24;103293.00;;;-0.20;85.22
76598;BME280;65486;53.144;18.134;2023-01-23T07:04:10;103300.83;;;-0.18;84.95
76598;BME280;65486;53.144;18.134;2023-01-23T07:06:38;103300.39;;;-0.17;85.02
76598;BME280;65486;53.144;18.134;2023-01-23T07:09:04;103306.55;;;-0.17;85.19
76598;BME280;65486;53.144;18.134;2023-01-23T07:11:31;103306.77;;;-0.18;85.21
76598;BME280;65486;53.144;18.134;2023-01-23T07:13:59;103311.77;;;-0.20;85.07
76598;BME280;65486;53.144;18.134;2023-01-23T07:16:27;103311.13;;;-0.21;85.04
76598;BME280;65486;53.144;18.134;2023-01-23T07:18:55;103311.16;;;-0.22;85.09
76598;BME280;65486;53.144;18.134;2023-01-23T07:21:31;103316.12;;;-0.20;84.94
76598;BME280;65486;53.144;18.134;2023-01-23T07:23:58;103318.48;;;-0.17;85.08
76598;BME280;65486;53.144;18.134;2023-01-23T07:26:25;103317.80;;;-0.15;85.09
76598;BME280;65486;53.144;18.134;2023-01-23T07:28:54;103314.58;;;-0.15;84.62
76598;BME280;65486;53.144;18.134;2023-01-23T07:31:21;103310.88;;;-0.14;84.92
76598;BME280;65486;53.144;18.134;2023-01-23T07:33:48;103310.23;;;-0.12;84.97
76598;BME280;65486;53.144;18.134;2023-01-23T07:36:15;103317.21;;;-0.11;84.92
76598;BME280;65486;53.144;18.134;2023-01-23T07:38:43;103317.70;;;-0.08;84.81
76598;BME280;65486;53.144;18.134;2023-01-23T07:41:10;103317.80;;;-0.06;84.64
76598;BME280;65486;53.144;18.134;2023-01-23T07:43:37;103322.00;;;-0.04;84.45
76598;BME280;65486;53.144;18.134;2023-01-23T07:46:04;103325.95;;;0.00;84.72
76598;BME280;65486;53.144;18.134;2023-01-23T07:48:31;103331.10;;;0.05;84.25
76598;BME280;65486;53.144;18.134;2023-01-23T07:51:01;103331.36;;;0.06;84.43
76598;BME280;65486;53.144;18.134;2023-01-23T07:53:31;103328.73;;;0.08;84.44
76598;BME280;65486;53.144;18.134;2023-01-23T07:55:57;103328.67;;;0.09;84.30
76598;BME280;65486;53.144;18.134;2023-01-23T07:58:27;103329.02;;;0.12;84.38
76598;BME280;65486;53.144;18.134;2023-01-23T08:00:53;103333.05;;;0.14;84.22
76598;BME280;65486;53.144;18.134;2023-01-23T08:03:20;103330.92;;;0.14;84.01
76598;BME280;65486;53.144;18.134;2023-01-23T08:05:48;103331.95;;;0.15;84.00
76598;BME280;65486;53.144;18.134;2023-01-23T08:08:15;103332.53;;;0.17;84.00
76598;BME280;65486;53.144;18.134;2023-01-23T08:10:42;103336.23;;;0.18;83.94
76598;BME280;65486;53.144;18.134;2023-01-23T08:13:09;103335.49;;;0.19;83.96
76598;BME280;65486;53.144;18.134;2023-01-23T08:15:37;103340.55;;;0.19;83.99
76598;BME280;65486;53.144;18.134;2023-01-23T08:18:06;103339.55;;;0.17;83.68
76598;BME280;65486;53.144;18.134;2023-01-23T08:20:33;103341.98;;;0.16;83.84
76598;BME280;65486;53.144;18.134;2023-01-23T08:23:00;103342.23;;;0.15;83.72
76598;BME280;65486;53.144;18.134;2023-01-23T08:25:29;103344.21;;;0.18;84.11
76598;BME280;65486;53.144;18.134;2023-01-23T08:27:56;103351.71;;;0.22;83.99
76598;BME280;65486;53.144;18.134;2023-01-23T08:30:23;103356.02;;;0.26;83.96
76598;BME280;65486;53.144;18.134;2023-01-23T08:32:50;103354.85;;;0.27;83.93
76598;BME280;65486;53.144;18.134;2023-01-23T08:35:17;103351.75;;;0.28;83.90
76598;BME280;65486;53.144;18.134;2023-01-23T08:37:44;103351.73;;;0.31;83.78
76598;BME280;65486;53.144;18.134;2023-01-23T08:40:11;103351.95;;;0.33;83.63
76598;BME280;65486;53.144;18.134;2023-01-23T08:42:38;103350.02;;;0.32;83.95
76598;BME280;65486;53.144;18.134;2023-01-23T08:45:06;103350.01;;;0.32;83.57
76598;BME280;65486;53.144;18.134;2023-01-23T08:47:33;103345.98;;;0.33;83.61
76598;BME280;65486;53.144;18.134;2023-01-23T08:50:05;103351.59;;;0.36;83.64
76598;BME280;65486;53.144;18.134;2023-01-23T08:52:32;103349.52;;;0.37;83.57
76598;BME280;65486;53.144;18.134;2023-01-23T08:55:01;103353.52;;;0.37;83.53
76598;BME280;65486;53.144;18.134;2023-01-23T08:57:28;103357.55;;;0.39;83.51
76598;BME280;65486;53.144;18.134;2023-01-23T08:59:56;103357.77;;;0.41;83.49
76598;BME280;65486;53.144;18.134;2023-01-23T09:02:23;103356.98;;;0.45;83.81
76598;BME280;65486;53.144;18.134;2023-01-23T09:04:49;103356.74;;;0.49;83.39
76598;BME280;65486;53.144;18.134;2023-01-23T09:07:16;103360.46;;;0.53;83.56
76598;BME280;65486;53.144;18.134;2023-01-23T09:09:43;103361.30;;;0.57;83.22
76598;BME280;65486;53.144;18.134;2023-01-23T09:12:10;103362.98;;;0.57;82.74
76598;BME280;65486;53.144;18.134;2023-01-23T09:14:37;103361.66;;;0.55;82.86
76598;BME280;65486;53.144;18.134;2023-01-23T09:17:05;103364.58;;;0.54;82.86
76598;BME280;65486;53.144;18.134;2023-01-23T09:19:32;103363.30;;;0.55;83.20
76598;BME280;65486;53.144;18.134;2023-01-23T09:21:59;103363.79;;;0.58;83.31
76598;BME280;65486;53.144;18.134;2023-01-23T09:24:26;103367.40;;;0.61;83.42
76598;BME280;65486;53.144;18.134;2023-01-23T09:26:53;103367.13;;;0.62;83.23
76598;BME280;65486;53.144;18.134;2023-01-23T09:29:20;103364.83;;;0.65;83.36
76598;BME280;65486;53.144;18.134;2023-01-23T09:31:47;103367.27;;;0.66;82.47
76598;BME280;65486;53.144;18.134;2023-01-23T09:34:14;103366.42;;;0.65;82.64
76598;BME280;65486;53.144;18.134;2023-01-23T09:36:41;103364.97;;;0.68;83.15
76598;BME280;65486;53.144;18.134;2023-01-23T09:39:10;103363.27;;;0.69;82.41
76598;BME280;65486;53.144;18.134;2023-01-23T09:41:39;103365.03;;;0.70;82.48
76598;BME280;65486;53.144;18.134;2023-01-23T09:47:09;103365.89;;;0.79;82.80
76598;BME280;65486;53.144;18.134;2023-01-23T09:50:28;103371.11;;;0.82;82.89
76598;BME280;65486;53.144;18.134;2023-01-23T09:53:10;103372.69;;;0.83;82.63
76598;BME280;65486;53.144;18.134;2023-01-23T09:55:43;103369.60;;;0.81;82.73
76598;BME280;65486;53.144;18.134;2023-01-23T09:58:23;103367.02;;;0.81;82.61
76598;BME280;65486;53.144;18.134;2023-01-23T10:00:53;103368.35;;;0.81;82.42
76598;BME280;65486;53.144;18.134;2023-01-23T10:03:28;103370.69;;;0.78;82.85
76598;BME280;65486;53.144;18.134;2023-01-23T10:20:32;103360.53;;;0.83;82.67
76598;BME280;65486;53.144;18.134;2023-01-23T10:22:34;103361.23;;;0.87;82.78
76598;BME280;65486;53.144;18.134;2023-01-23T10:25:21;103366.36;;;0.92;83.12
76598;BME280;65486;53.144;18.134;2023-01-23T10:27:50;103365.05;;;0.96;82.92
76598;BME280;65486;53.144;18.134;2023-01-23T10:33:15;103363.19;;;1.05;83.12
76598;BME280;65486;53.144;18.134;2023-01-23T10:35:51;103368.52;;;1.09;83.02
76598;BME280;65486;53.144;18.134;2023-01-23T10:38:25;103370.08;;;1.10;82.25
76598;BME280;65486;53.144;18.134;2023-01-23T10:40:53;103373.60;;;1.12;82.40
76598;BME280;65486;53.144;18.134;2023-01-23T10:43:44;103373.21;;;1.15;82.68
76598;BME280;65486;53.144;18.134;2023-01-23T10:46:16;103371.94;;;1.15;82.27
76598;BME280;65486;53.144;18.134;2023-01-23T10:48:47;103367.52;;;1.13;82.12
76598;BME280;65486;53.144;18.134;2023-01-23T10:56:46;103369.02;;;1.15;82.30
76598;BME280;65486;53.144;18.134;2023-01-23T10:59:22;103365.25;;;1.20;82.34
76598;BME280;65486;53.144;18.134;2023-01-23T11:02:02;103363.96;;;1.23;82.01
76598;BME280;65486;53.144;18.134;2023-01-23T11:04:34;103367.16;;;1.22;82.05
76598;BME280;65486;53.144;18.134;2023-01-23T11:09:28;103368.23;;;1.24;82.32
76598;BME280;65486;53.144;18.134;2023-01-23T11:12:04;103366.45;;;1.24;81.55
76598;BME280;65486;53.144;18.134;2023-01-23T11:14:34;103368.14;;;1.15;81.87
76598;BME280;65486;53.144;18.134;2023-01-23T11:17:20;103361.95;;;1.15;82.14
76598;BME280;65486;53.144;18.134;2023-01-23T11:19:52;103366.74;;;1.20;82.30
76598;BME280;65486;53.144;18.134;2023-01-23T11:24:57;103366.54;;;1.25;82.48
76598;BME280;65486;53.144;18.134;2023-01-23T11:27:29;103364.64;;;1.27;82.61
76598;BME280;65486;53.144;18.134;2023-01-23T11:32:55;103371.88;;;1.27;82.25
76598;BME280;65486;53.144;18.134;2023-01-23T11:38:17;103373.52;;;1.27;82.04
76598;BME280;65486;53.144;18.134;2023-01-23T11:40:46;103371.41;;;1.26;81.86
76598;BME280;65486;53.144;18.134;2023-01-23T11:43:15;103370.27;;;1.24;82.17
76598;BME280;65486;53.144;18.134;2023-01-23T11:49:08;103368.75;;;1.19;82.33
76598;BME280;65486;53.144;18.134;2023-01-23T11:51:48;103369.84;;;1.17;82.09
76598;BME280;65486;53.144;18.134;2023-01-23T11:57:13;103363.64;;;1.14;82.09
76598;BME280;65486;53.144;18.134;2023-01-23T12:06:08;103362.66;;;1.16;82.40
76598;BME280;65486;53.144;18.134;2023-01-23T12:11:17;103365.27;;;1.14;82.21
76598;BME280;65486;53.144;18.134;2023-01-23T12:16:56;103363.92;;;1.07;82.31
76598;BME280;65486;53.144;18.134;2023-01-23T12:20:02;103363.90;;;1.05;82.18
76598;BME280;65486;53.144;18.134;2023-01-23T12:25:39;103366.69;;;0.96;82.13
76598;BME280;65486;53.144;18.134;2023-01-23T12:28:17;103370.23;;;0.97;82.46
76598;BME280;65486;53.144;18.134;2023-01-23T12:48:12;103369.88;;;0.99;82.90
76598;BME280;65486;53.144;18.134;2023-01-23T12:50:56;103369.70;;;1.05;82.83
76598;BME280;65486;53.144;18.134;2023-01-23T12:53:26;103374.80;;;1.07;82.78
76598;BME280;65486;53.144;18.134;2023-01-23T12:56:17;103375.84;;;1.08;82.53
76598;BME280;65486;53.144;18.134;2023-01-23T12:58:59;103375.80;;;1.03;82.16
76598;BME280;65486;53.144;18.134;2023-01-23T13:04:19;103379.52;;;0.96;82.38
76598;BME280;65486;53.144;18.134;2023-01-23T13:12:29;103381.73;;;0.87;82.20
76598;BME280;65486;53.144;18.134;2023-01-23T13:20:31;103375.96;;;0.86;82.61
76598;BME280;65486;53.144;18.134;2023-01-23T13:23:34;103374.54;;;0.89;82.80
76598;BME280;65486;53.144;18.134;2023-01-23T13:26:31;103377.17;;;0.90;82.80
76598;BME280;65486;53.144;18.134;2023-01-23T13:29:00;103374.41;;;0.94;82.85
76598;BME280;65486;53.144;18.134;2023-01-23T13:31:34;103373.17;;;0.96;82.74
76598;BME280;65486;53.144;18.134;2023-01-23T13:42:37;103372.98;;;0.99;83.13
76598;BME280;65486;53.144;18.134;2023-01-23T13:50:43;103362.89;;;1.01;83.17
76598;BME280;65486;53.144;18.134;2023-01-23T13:53:22;103364.30;;;1.02;82.96
76598;BME280;65486;53.144;18.134;2023-01-23T13:56:17;103364.55;;;1.01;82.72
76598;BME280;65486;53.144;18.134;2023-01-23T13:59:30;103369.35;;;0.99;82.82
76598;BME280;65486;53.144;18.134;2023-01-23T14:02:19;103367.89;;;0.94;82.90
76598;BME280;65486;53.144;18.134;2023-01-23T14:05:15;103372.99;;;0.87;82.89
76598;BME280;65486;53.144;18.134;2023-01-23T14:07:45;103374.00;;;0.82;83.08
76598;BME280;65486;53.144;18.134;2023-01-23T14:10:35;103376.23;;;0.82;82.95
76598;BME280;65486;53.144;18.134;2023-01-23T14:13:12;103370.02;;;0.80;83.22
76598;BME280;65486;53.144;18.134;2023-01-23T14:15:53;103367.19;;;0.81;83.16
76598;BME280;65486;53.144;18.134;2023-01-23T14:18:57;103373.20;;;0.81;83.30
76598;BME280;65486;53.144;18.134;2023-01-23T14:21:33;103373.71;;;0.82;83.13
76598;BME280;65486;53.144;18.134;2023-01-23T14:24:00;103372.46;;;0.81;82.96
76598;BME280;65486;53.144;18.134;2023-01-23T14:26:33;103373.65;;;0.80;82.95
76598;BME280;65486;53.144;18.134;2023-01-23T14:29:21;103375.21;;;0.78;83.32
76598;BME280;65486;53.144;18.134;2023-01-23T14:31:50;103375.98;;;0.77;83.31
76598;BME280;65486;53.144;18.134;2023-01-23T14:34:20;103380.88;;;0.77;83.24
76598;BME280;65486;53.144;18.134;2023-01-23T14:37:05;103378.31;;;0.78;83.33
76598;BME280;65486;53.144;18.134;2023-01-23T14:39:37;103378.41;;;0.76;83.25
76598;BME280;65486;53.144;18.134;2023-01-23T14:42:05;103379.55;;;0.75;83.21
76598;BME280;65486;53.144;18.134;2023-01-23T14:44:41;103379.92;;;0.75;83.36
76598;BME280;65486;53.144;18.134;2023-01-23T14:47:16;103382.41;;;0.76;83.31
76598;BME280;65486;53.144;18.134;2023-01-23T14:49:45;103381.56;;;0.78;83.43
76598;BME280;65486;53.144;18.134;2023-01-23T14:52:31;103380.61;;;0.78;83.19
76598;BME280;65486;53.144;18.134;2023-01-23T14:55:23;103382.93;;;0.76;83.35
76598;BME280;65486;53.144;18.134;2023-01-23T14:57:52;103384.91;;;0.73;83.58
76598;BME280;65486;53.144;18.134;2023-01-23T15:00:20;103387.75;;;0.72;83.57
76598;BME280;65486;53.144;18.134;2023-01-23T15:02:49;103396.92;;;0.70;83.56
76598;BME280;65486;53.144;18.134;2023-01-23T15:05:20;103394.70;;;0.67;83.72
76598;BME280;65486;53.144;18.134;2023-01-23T15:10:43;103399.73;;;0.65;83.89